createdAt,value
2023-05-19T00:00:54.276Z,2.78
2023-05-19T00:01:57.333Z,3.10
2023-05-19T00:03:00.678Z,2.53
2023-05-19T00:04:05.385Z,2.33
2023-05-19T00:05:10.411Z,3.17
2023-05-19T00:06:13.803Z,2.38
2023-05-19T00:07:22.058Z,3.20
2023-05-19T00:08:24.975Z,2.65
2023-05-19T00:09:28.031Z,2.95
2023-05-19T00:10:33.304Z,3.03
2023-05-19T00:11:37.628Z,2.80
2023-05-19T00:12:40.448Z,2.80
2023-05-19T00:13:45.170Z,2.63
2023-05-19T00:14:48.030Z,3.60
2023-05-19T00:15:51.457Z,3.15
2023-05-19T00:16:56.064Z,3.40
2023-05-19T00:17:58.913Z,2.67
2023-05-19T00:19:03.672Z,2.83
2023-05-19T00:20:07.523Z,2.53
2023-05-19T00:21:10.494Z,3.10
2023-05-19T00:22:13.233Z,2.50
2023-05-19T00:23:15.832Z,3.03
2023-05-19T00:24:18.783Z,2.42
2023-05-19T00:25:21.550Z,2.70
2023-05-19T00:26:24.920Z,2.75
2023-05-19T00:28:37.363Z,2.88
2023-05-19T00:29:40.030Z,2.55
2023-05-19T00:30:42.759Z,2.70
2023-05-19T00:31:45.500Z,2.95
2023-05-19T00:32:48.290Z,2.40
2023-05-19T00:33:52.130Z,2.60
2023-05-19T00:34:54.786Z,3.13
2023-05-19T00:35:57.457Z,2.80
2023-05-19T00:37:00.159Z,3.35
2023-05-19T00:38:02.931Z,3.17
2023-05-19T00:39:05.753Z,3.70
2023-05-19T00:40:09.536Z,3.85
2023-05-19T00:41:12.126Z,3.28
2023-05-19T00:42:15.060Z,3.10
2023-05-19T00:43:17.854Z,3.35
2023-05-19T00:44:20.553Z,3.13
2023-05-19T00:45:23.453Z,3.30
2023-05-19T00:46:26.131Z,3.38
2023-05-19T00:47:28.912Z,3.13
2023-05-19T00:48:31.581Z,2.78
2023-05-19T00:49:34.892Z,3.60
2023-05-19T00:50:37.557Z,3.15
2023-05-19T00:51:43.261Z,3.30
2023-05-19T00:52:45.932Z,3.67
2023-05-19T00:53:51.069Z,2.97
2023-05-19T00:54:54.238Z,2.92
2023-05-19T00:55:57.279Z,3.03
2023-05-19T00:57:00.654Z,3.50
2023-05-19T00:58:05.470Z,2.90
2023-05-19T00:59:08.526Z,3.03
2023-05-19T01:00:12.009Z,3.30
2023-05-19T01:01:17.228Z,3.28
2023-05-19T01:02:20.772Z,3.65
2023-05-19T01:03:24.063Z,3.50
2023-05-19T01:04:27.090Z,3.47
2023-05-19T01:05:29.807Z,3.00
2023-05-19T01:06:32.708Z,2.80
2023-05-19T01:07:36.740Z,3.25
2023-05-19T01:08:39.731Z,2.70
2023-05-19T01:09:42.453Z,2.85
2023-05-19T01:10:45.191Z,2.80
2023-05-19T01:11:47.885Z,2.53
2023-05-19T01:12:50.505Z,3.00
2023-05-19T01:13:53.191Z,2.92
2023-05-19T01:14:56.439Z,3.00
2023-05-19T01:16:02.204Z,2.70
2023-05-19T01:17:10.418Z,2.72
2023-05-19T01:18:16.704Z,3.17
2023-05-19T01:19:32.114Z,2.92
2023-05-19T01:20:39.935Z,2.47
2023-05-19T01:22:01.328Z,3.10
2023-05-19T01:23:21.608Z,2.30
2023-05-19T01:24:33.467Z,2.90
2023-05-19T01:26:07.074Z,2.53
2023-05-19T01:27:54.497Z,2.30
2023-05-19T01:29:08.230Z,3.08
2023-05-19T01:30:41.861Z,2.42
2023-05-19T01:31:48.151Z,3.30
2023-05-19T01:32:53.418Z,2.78
2023-05-19T01:33:57.377Z,2.75
2023-05-19T01:35:00.423Z,2.60
2023-05-19T01:36:04.252Z,2.20
2023-05-19T01:37:08.165Z,2.85
2023-05-19T01:38:12.534Z,2.63
2023-05-19T01:39:16.671Z,2.90
2023-05-19T01:40:20.493Z,3.00
2023-05-19T01:41:23.463Z,2.47
2023-05-19T01:42:27.972Z,2.75
2023-05-19T01:43:31.090Z,2.65
2023-05-19T01:44:34.092Z,3.08
2023-05-19T01:45:37.500Z,2.78
2023-05-19T01:46:40.575Z,1.98
2023-05-19T01:47:44.749Z,2.45
2023-05-19T01:48:48.526Z,2.92
2023-05-19T01:49:51.334Z,2.58
2023-05-19T01:50:57.230Z,2.47
2023-05-19T01:52:00.053Z,2.28
2023-05-19T01:53:02.902Z,2.53
2023-05-19T01:54:05.631Z,3.15
2023-05-19T01:55:09.128Z,2.28
2023-05-19T01:56:13.064Z,2.60
2023-05-19T01:57:27.099Z,2.55
2023-05-19T01:58:47.200Z,2.40
2023-05-19T02:00:13.000Z,1.75
2023-05-19T02:01:27.841Z,2.03
2023-05-19T02:02:56.588Z,2.45
2023-05-19T02:04:27.152Z,2.45
2023-05-19T02:06:07.645Z,2.65
2023-05-19T02:07:45.265Z,2.53
2023-05-19T02:09:02.828Z,2.75
2023-05-19T02:10:14.026Z,2.72
2023-05-19T02:11:26.399Z,2.40
2023-05-19T02:12:35.622Z,2.35
2023-05-19T02:13:43.556Z,2.30
2023-05-19T02:14:51.220Z,2.10
2023-05-19T02:15:56.483Z,2.35
2023-05-19T02:16:59.601Z,2.53
2023-05-19T02:18:04.716Z,2.40
2023-05-19T02:19:07.536Z,2.42
2023-05-19T02:20:11.739Z,2.72
2023-05-19T02:21:14.422Z,2.75
2023-05-19T02:22:17.123Z,3.45
2023-05-19T02:23:19.755Z,2.10
2023-05-19T02:24:23.103Z,2.50
2023-05-19T02:25:25.929Z,2.35
2023-05-19T02:26:28.584Z,2.65
2023-05-19T02:27:31.467Z,2.78
2023-05-19T02:28:34.865Z,2.30
2023-05-19T02:29:37.712Z,2.83
2023-05-19T02:30:41.574Z,1.92
2023-05-19T02:31:44.343Z,2.55
2023-05-19T02:32:47.257Z,2.60
2023-05-19T02:33:50.117Z,2.13
2023-05-19T02:34:53.379Z,2.53
2023-05-19T02:35:59.011Z,2.40
2023-05-19T02:37:02.062Z,2.05
2023-05-19T02:38:04.750Z,2.40
2023-05-19T02:39:07.702Z,2.35
2023-05-19T02:40:11.116Z,2.63
2023-05-19T02:41:13.804Z,2.25
2023-05-19T02:42:18.361Z,2.15
2023-05-19T02:43:21.109Z,2.50
2023-05-19T02:44:24.157Z,2.00
2023-05-19T02:45:28.727Z,2.10
2023-05-19T02:46:33.961Z,2.67
2023-05-19T02:47:37.285Z,2.40
2023-05-19T02:48:40.664Z,2.65
2023-05-19T02:49:44.263Z,2.25
2023-05-19T02:50:47.149Z,2.35
2023-05-19T02:51:49.771Z,2.47
2023-05-19T02:52:53.988Z,2.53
2023-05-19T02:53:56.787Z,2.35
2023-05-19T02:54:59.479Z,2.65
2023-05-19T02:56:02.213Z,2.55
2023-05-19T02:57:05.223Z,2.58
2023-05-19T02:58:07.941Z,2.05
2023-05-19T02:59:10.667Z,2.13
2023-05-19T03:00:13.775Z,2.33
2023-05-19T03:01:17.002Z,1.95
2023-05-19T03:02:19.717Z,2.25
2023-05-19T03:03:22.834Z,2.42
2023-05-19T03:04:25.716Z,2.33
2023-05-19T03:05:30.342Z,2.17
2023-05-19T03:06:33.309Z,2.40
2023-05-19T03:07:36.374Z,2.47
2023-05-19T03:08:42.162Z,2.45
2023-05-19T03:09:45.112Z,2.20
2023-05-19T03:10:48.032Z,2.47
2023-05-19T03:11:50.824Z,2.55
2023-05-19T03:12:53.714Z,2.58
2023-05-19T03:13:56.460Z,2.60
2023-05-19T03:14:59.727Z,2.70
2023-05-19T03:16:03.313Z,2.25
2023-05-19T03:17:08.149Z,2.88
2023-05-19T03:18:12.756Z,2.45
2023-05-19T03:19:15.687Z,2.67
2023-05-19T03:20:18.598Z,3.33
2023-05-19T03:21:21.443Z,2.60
2023-05-19T03:22:24.224Z,2.47
2023-05-19T03:23:27.310Z,2.88
2023-05-19T03:24:30.097Z,2.20
2023-05-19T03:25:32.795Z,2.42
2023-05-19T03:26:35.635Z,2.47
2023-05-19T03:27:38.403Z,2.47
2023-05-19T03:28:42.139Z,2.92
2023-05-19T03:29:44.782Z,2.47
2023-05-19T03:30:50.140Z,2.40
2023-05-19T03:31:55.531Z,2.15
2023-05-19T03:32:58.372Z,2.30
2023-05-19T03:34:02.051Z,2.25
2023-05-19T03:35:05.855Z,2.15
2023-05-19T03:36:08.515Z,2.55
2023-05-19T03:37:14.320Z,2.53
2023-05-19T03:38:17.108Z,2.17
2023-05-19T03:39:26.914Z,2.17
2023-05-19T03:40:29.795Z,2.08
2023-05-19T03:41:39.222Z,2.28
2023-05-19T03:42:41.782Z,2.28
2023-05-19T03:43:44.392Z,2.53
2023-05-19T03:44:47.113Z,2.40
2023-05-19T03:45:50.115Z,2.38
2023-05-19T03:47:11.274Z,2.05
2023-05-19T03:48:17.088Z,2.08
2023-05-19T03:49:40.984Z,2.17
2023-05-19T03:51:06.529Z,2.70
2023-05-19T03:52:09.904Z,2.33
2023-05-19T03:53:33.162Z,2.25
2023-05-19T03:54:36.176Z,2.30
2023-05-19T03:55:39.710Z,1.95
2023-05-19T03:56:43.208Z,2.08
2023-05-19T03:57:45.821Z,1.83
2023-05-19T03:58:49.780Z,1.98
2023-05-19T03:59:52.480Z,2.15
2023-05-19T04:00:56.359Z,2.03
2023-05-19T04:01:59.087Z,1.98
2023-05-19T04:03:02.386Z,2.08
2023-05-19T04:04:05.374Z,1.88
2023-05-19T04:05:08.659Z,2.00
2023-05-19T04:06:13.052Z,1.98
2023-05-19T04:07:15.769Z,1.70
2023-05-19T04:08:18.354Z,2.15
2023-05-19T04:09:21.655Z,1.98
2023-05-19T04:10:24.327Z,1.52
2023-05-19T04:11:26.983Z,2.03
2023-05-19T04:12:29.868Z,1.98
2023-05-19T04:13:35.667Z,1.83
2023-05-19T04:14:38.286Z,1.80
2023-05-19T04:15:41.457Z,2.15
2023-05-19T04:16:44.738Z,2.10
2023-05-19T04:17:47.413Z,1.60
2023-05-19T04:18:50.242Z,2.22
2023-05-19T04:19:55.960Z,1.98
2023-05-19T04:20:58.755Z,1.83
2023-05-19T04:22:01.627Z,1.65
2023-05-19T04:23:04.329Z,1.70
2023-05-19T04:24:07.353Z,1.77
2023-05-19T04:25:10.664Z,2.03
2023-05-19T04:26:15.001Z,1.58
2023-05-19T04:27:17.929Z,1.52
2023-05-19T04:28:21.645Z,2.00
2023-05-19T04:29:24.374Z,2.00
2023-05-19T04:30:28.871Z,1.70
2023-05-19T04:31:31.778Z,1.58
2023-05-19T04:32:34.479Z,1.80
2023-05-19T04:33:37.767Z,2.00
2023-05-19T04:34:40.443Z,1.75
2023-05-19T04:35:44.386Z,2.03
2023-05-19T04:36:48.424Z,1.65
2023-05-19T04:37:54.440Z,1.52
2023-05-19T04:39:07.126Z,1.50
2023-05-19T04:40:11.265Z,1.52
2023-05-19T04:41:16.574Z,1.30
2023-05-19T04:42:19.722Z,1.52
2023-05-19T04:43:23.230Z,1.45
2023-05-19T04:44:26.597Z,1.60
2023-05-19T04:45:29.292Z,1.58
2023-05-19T04:46:35.517Z,1.50
2023-05-19T04:47:38.422Z,1.48
2023-05-19T04:48:41.333Z,1.70
2023-05-19T04:49:44.124Z,1.60
2023-05-19T04:50:48.952Z,1.67
2023-05-19T04:51:55.604Z,1.17
2023-05-19T04:53:02.211Z,1.50
2023-05-19T04:54:05.603Z,1.20
2023-05-19T04:55:11.315Z,1.55
2023-05-19T04:56:15.433Z,1.40
2023-05-19T04:57:18.703Z,1.75
2023-05-19T04:58:21.555Z,1.40
2023-05-19T04:59:24.655Z,1.60
2023-05-19T05:00:28.433Z,1.23
2023-05-19T05:01:40.312Z,1.13
2023-05-19T05:02:44.616Z,1.38
2023-05-19T05:03:48.558Z,1.10
2023-05-19T05:04:54.532Z,1.50
2023-05-19T05:05:58.713Z,1.20
2023-05-19T05:07:01.424Z,1.63
2023-05-19T05:08:04.770Z,1.00
2023-05-19T05:09:12.960Z,1.10
2023-05-19T05:10:15.756Z,1.55
2023-05-19T05:11:18.735Z,1.48
2023-05-19T05:12:22.972Z,1.70
2023-05-19T05:13:26.367Z,1.25
2023-05-19T05:14:29.707Z,1.75
2023-05-19T05:15:32.759Z,1.58
2023-05-19T05:16:37.775Z,1.05
2023-05-19T05:17:41.861Z,1.30
2023-05-19T05:18:45.173Z,1.50
2023-05-19T05:19:48.748Z,1.50
2023-05-19T05:20:53.067Z,1.60
2023-05-19T05:21:56.303Z,1.40
2023-05-19T05:22:59.463Z,1.17
2023-05-19T05:24:02.768Z,1.63
2023-05-19T05:25:08.337Z,1.35
2023-05-19T05:26:18.704Z,1.73
2023-05-19T05:27:23.823Z,1.17
2023-05-19T05:28:26.558Z,1.42
2023-05-19T05:29:30.164Z,1.23
2023-05-19T05:30:34.359Z,1.67
2023-05-19T05:31:37.738Z,1.50
2023-05-19T05:32:40.773Z,1.30
2023-05-19T05:33:50.382Z,1.48
2023-05-19T05:34:56.582Z,1.23
2023-05-19T05:35:59.938Z,1.20
2023-05-19T05:37:03.656Z,1.55
2023-05-19T05:38:06.982Z,1.35
2023-05-19T05:39:10.429Z,1.40
2023-05-19T05:40:15.308Z,1.30
2023-05-19T05:41:21.825Z,1.73
2023-05-19T05:42:28.186Z,1.10
2023-05-19T05:43:32.365Z,1.40
2023-05-19T05:44:38.199Z,1.42
2023-05-19T05:45:41.760Z,1.35
2023-05-19T05:46:44.870Z,1.40
2023-05-19T05:47:48.008Z,1.60
2023-05-19T05:48:51.163Z,1.35
2023-05-19T05:49:54.185Z,1.20
2023-05-19T05:50:58.016Z,1.55
2023-05-19T05:52:06.368Z,1.10
2023-05-19T05:53:19.393Z,1.45
2023-05-19T05:54:24.982Z,1.60
2023-05-19T05:55:29.023Z,1.23
2023-05-19T05:56:33.839Z,1.17
2023-05-19T05:57:36.804Z,1.60
2023-05-19T05:58:40.825Z,1.60
2023-05-19T05:59:45.487Z,1.05
2023-05-19T06:00:49.470Z,1.20
2023-05-19T06:01:52.472Z,1.40
2023-05-19T06:02:57.377Z,1.33
2023-05-19T06:04:01.745Z,1.20
2023-05-19T06:05:06.010Z,1.50
2023-05-19T06:06:08.929Z,1.25
2023-05-19T06:07:12.315Z,1.17
2023-05-19T06:08:15.283Z,1.45
2023-05-19T06:09:18.257Z,1.17
2023-05-19T06:10:21.495Z,1.40
2023-05-19T06:11:25.510Z,1.60
2023-05-19T06:12:29.376Z,1.02
2023-05-19T06:13:32.079Z,0.90
2023-05-19T06:14:34.763Z,0.90
2023-05-19T06:15:51.241Z,1.35
2023-05-19T06:17:01.414Z,1.40
2023-05-19T06:18:05.579Z,1.60
2023-05-19T06:19:08.432Z,0.98
2023-05-19T06:20:13.101Z,0.98
2023-05-19T06:21:15.916Z,1.05
2023-05-19T06:22:18.677Z,1.20
2023-05-19T06:23:21.592Z,1.13
2023-05-19T06:24:24.226Z,1.10
2023-05-19T06:25:26.941Z,1.00
2023-05-19T06:26:29.831Z,1.33
2023-05-19T06:27:34.526Z,1.30
2023-05-19T06:28:37.717Z,1.10
2023-05-19T06:29:40.910Z,1.13
2023-05-19T06:30:44.826Z,1.05
2023-05-19T06:31:57.144Z,1.00
2023-05-19T06:33:00.745Z,1.25
2023-05-19T06:34:03.939Z,1.50
2023-05-19T06:35:07.425Z,1.20
2023-05-19T06:36:10.949Z,1.13
2023-05-19T06:37:19.596Z,1.00
2023-05-19T06:38:22.252Z,0.93
2023-05-19T06:39:26.343Z,1.27
2023-05-19T06:40:29.275Z,1.40
2023-05-19T06:41:31.917Z,0.95
2023-05-19T06:42:34.690Z,1.35
2023-05-19T06:43:51.228Z,1.40
2023-05-19T06:44:56.098Z,1.33
2023-05-19T06:45:58.924Z,1.20
2023-05-19T06:47:02.136Z,1.40
2023-05-19T06:48:04.970Z,1.30
2023-05-19T06:49:07.720Z,1.42
2023-05-19T06:50:15.705Z,1.08
2023-05-19T06:51:21.837Z,1.40
2023-05-19T06:52:28.313Z,1.60
2023-05-19T06:53:31.211Z,1.00
2023-05-19T06:54:34.105Z,1.27
2023-05-19T06:55:50.451Z,1.23
2023-05-19T06:57:01.460Z,1.17
2023-05-19T06:58:04.261Z,1.13
2023-05-19T06:59:06.979Z,1.45
2023-05-19T07:00:14.618Z,1.05
2023-05-19T07:01:22.463Z,1.10
2023-05-19T07:02:31.096Z,1.08
2023-05-19T07:03:34.044Z,1.25
2023-05-19T07:04:37.028Z,1.20
2023-05-19T07:05:39.792Z,1.80
2023-05-19T07:06:42.611Z,1.50
2023-05-19T07:07:45.337Z,1.13
2023-05-19T07:08:50.942Z,1.40
2023-05-19T07:09:54.132Z,1.05
2023-05-19T07:10:57.462Z,1.38
2023-05-19T07:12:00.269Z,1.25
2023-05-19T07:13:03.299Z,1.95
2023-05-19T07:14:08.712Z,1.30
2023-05-19T07:15:11.725Z,1.67
2023-05-19T07:16:14.605Z,1.38
2023-05-19T07:17:17.334Z,1.20
2023-05-19T07:18:22.147Z,1.38
2023-05-19T07:19:25.179Z,1.50
2023-05-19T07:20:29.629Z,1.40
2023-05-19T07:21:33.220Z,1.52
2023-05-19T07:22:36.992Z,1.52
2023-05-19T07:23:39.854Z,1.42
2023-05-19T07:24:42.522Z,1.20
2023-05-19T07:25:45.214Z,1.30
2023-05-19T07:26:48.080Z,1.13
2023-05-19T07:27:50.845Z,1.40
2023-05-19T07:28:53.621Z,1.20
2023-05-19T07:29:56.330Z,1.15
2023-05-19T07:30:58.975Z,1.17
2023-05-19T07:32:01.828Z,1.20
2023-05-19T07:33:04.819Z,1.40
2023-05-19T07:34:07.550Z,1.13
2023-05-19T07:35:10.291Z,1.20
2023-05-19T07:36:13.412Z,1.27
2023-05-19T07:37:16.764Z,1.40
2023-05-19T07:38:19.483Z,1.30
2023-05-19T07:39:22.263Z,0.98
2023-05-19T07:40:25.123Z,1.48
2023-05-19T07:41:27.953Z,1.50
2023-05-19T07:42:30.774Z,1.27
2023-05-19T07:43:33.328Z,1.20
2023-05-19T07:44:36.215Z,1.73
2023-05-19T07:45:39.243Z,1.30
2023-05-19T07:46:41.991Z,1.33
2023-05-19T07:47:44.755Z,1.38
2023-05-19T07:48:47.721Z,1.77
2023-05-19T07:49:51.871Z,1.40
2023-05-19T07:50:54.826Z,1.30
2023-05-19T07:51:57.552Z,1.58
2023-05-19T07:53:03.139Z,1.30
2023-05-19T07:54:05.738Z,1.17
2023-05-19T07:55:08.456Z,1.30
2023-05-19T07:56:11.364Z,1.30
2023-05-19T07:57:14.574Z,1.60
2023-05-19T07:58:17.493Z,1.48
2023-05-19T07:59:20.642Z,1.20
2023-05-19T08:00:23.495Z,1.60
2023-05-19T08:01:26.343Z,1.40
2023-05-19T08:02:29.096Z,1.58
2023-05-19T08:03:32.177Z,1.55
2023-05-19T08:04:35.149Z,1.48
2023-05-19T08:05:37.959Z,1.45
2023-05-19T08:06:42.826Z,1.30
2023-05-19T08:07:45.478Z,1.67
2023-05-19T08:08:48.309Z,1.58
2023-05-19T08:09:51.019Z,2.08
2023-05-19T08:10:53.775Z,1.58
2023-05-19T08:11:56.403Z,1.60
2023-05-19T08:12:59.286Z,1.50
2023-05-19T08:14:01.934Z,1.60
2023-05-19T08:15:05.059Z,1.40
2023-05-19T08:16:07.972Z,1.38
2023-05-19T08:17:10.800Z,1.58
2023-05-19T08:18:13.734Z,1.30
2023-05-19T08:19:16.568Z,1.63
2023-05-19T08:20:19.433Z,1.55
2023-05-19T08:21:22.492Z,1.17
2023-05-19T08:22:25.272Z,1.55
2023-05-19T08:23:27.962Z,1.55
2023-05-19T08:24:30.751Z,1.05
2023-05-19T08:25:33.558Z,1.60
2023-05-19T08:26:37.760Z,1.25
2023-05-19T08:27:41.280Z,1.95
2023-05-19T08:28:44.340Z,1.60
2023-05-19T08:29:47.102Z,1.70
2023-05-19T08:30:52.300Z,1.60
2023-05-19T08:31:54.987Z,1.35
2023-05-19T08:32:58.297Z,1.55
2023-05-19T08:34:01.198Z,1.45
2023-05-19T08:35:04.431Z,1.98
2023-05-19T08:36:07.270Z,1.67
2023-05-19T08:37:10.171Z,1.40
2023-05-19T08:38:12.933Z,1.63
2023-05-19T08:39:16.753Z,1.63
2023-05-19T08:40:19.474Z,1.42
2023-05-19T08:41:23.601Z,1.38
2023-05-19T08:42:26.399Z,1.55
2023-05-19T08:43:29.232Z,1.50
2023-05-19T08:44:31.969Z,1.48
2023-05-19T08:45:34.957Z,1.70
2023-05-19T08:46:37.832Z,1.85
2023-05-19T08:47:47.985Z,1.63
2023-05-19T08:48:54.741Z,1.60
2023-05-19T08:50:07.944Z,1.70
2023-05-19T08:51:27.859Z,1.58
2023-05-19T08:52:38.846Z,1.83
2023-05-19T08:53:45.404Z,1.38
2023-05-19T08:54:54.859Z,1.67
2023-05-19T08:56:15.268Z,1.60
2023-05-19T08:57:18.047Z,1.40
2023-05-19T08:58:22.507Z,1.70
2023-05-19T08:59:25.776Z,1.90
2023-05-19T09:00:29.641Z,1.63
2023-05-19T09:01:32.905Z,1.52
2023-05-19T09:02:37.089Z,2.10
2023-05-19T09:03:39.922Z,1.48
2023-05-19T09:04:46.095Z,1.60
2023-05-19T09:05:49.014Z,1.58
2023-05-19T09:06:51.776Z,1.52
2023-05-19T09:07:55.124Z,1.25
2023-05-19T09:08:58.037Z,1.55
2023-05-19T09:10:01.465Z,1.55
2023-05-19T09:14:05.878Z,1.55
2023-05-19T09:15:09.605Z,1.40
2023-05-19T09:16:12.362Z,1.30
2023-05-19T09:18:32.515Z,1.40
2023-05-19T09:19:35.246Z,1.40
2023-05-19T09:20:42.609Z,1.52
2023-05-19T09:21:45.890Z,1.30
2023-05-19T09:22:48.790Z,1.55
2023-05-19T09:23:51.532Z,1.70
2023-05-19T09:24:54.245Z,1.83
2023-05-19T09:25:57.497Z,1.65
2023-05-19T09:27:00.537Z,1.70
2023-05-19T09:28:03.352Z,1.40
2023-05-19T09:29:16.087Z,1.70
2023-05-19T09:30:19.688Z,1.50
2023-05-19T09:31:22.697Z,1.88
2023-05-19T09:32:29.285Z,1.80
2023-05-19T09:33:37.440Z,1.73
2023-05-19T09:34:43.917Z,1.70
2023-05-19T09:35:49.807Z,1.77
2023-05-19T09:36:53.620Z,1.33
2023-05-19T09:37:56.563Z,2.00
2023-05-19T09:38:59.256Z,2.20
2023-05-19T09:40:01.933Z,1.50
2023-05-19T09:41:06.668Z,2.00
2023-05-19T09:42:09.575Z,2.10
2023-05-19T09:43:12.685Z,1.55
2023-05-19T09:44:21.465Z,1.65
2023-05-19T09:45:24.113Z,1.60
2023-05-19T09:46:28.501Z,1.40
2023-05-19T09:47:39.117Z,1.42
2023-05-19T09:48:42.530Z,1.52
2023-05-19T09:49:48.354Z,1.73
2023-05-19T09:50:51.923Z,1.63
2023-05-19T09:51:59.087Z,1.40
2023-05-19T09:53:02.365Z,1.70
2023-05-19T09:54:05.421Z,1.73
2023-05-19T09:55:12.818Z,1.60
2023-05-19T09:56:15.784Z,1.50
2023-05-19T09:57:18.683Z,1.90
2023-05-19T09:58:21.732Z,1.73
2023-05-19T09:59:25.661Z,1.70
2023-05-19T10:00:28.581Z,1.80
2023-05-19T10:01:33.805Z,1.77
2023-05-19T10:02:37.372Z,1.77
2023-05-19T10:03:40.862Z,1.40
2023-05-19T10:04:44.215Z,1.83
2023-05-19T10:05:47.187Z,1.90
2023-05-19T10:06:54.281Z,1.88
2023-05-19T10:07:56.904Z,1.45
2023-05-19T10:09:00.926Z,1.63
2023-05-19T10:10:03.867Z,1.65
2023-05-19T10:11:07.123Z,1.60
2023-05-19T10:12:11.455Z,1.75
2023-05-19T10:13:14.409Z,1.50
2023-05-19T10:14:17.295Z,1.48
2023-05-19T10:15:23.493Z,1.63
2023-05-19T10:16:27.169Z,1.63
2023-05-19T10:17:30.011Z,1.80
2023-05-19T10:18:33.971Z,1.40
2023-05-19T10:19:37.690Z,1.52
2023-05-19T10:20:40.733Z,1.52
2023-05-19T10:21:43.390Z,2.10
2023-05-19T10:22:47.949Z,1.90
2023-05-19T10:23:50.580Z,1.83
2023-05-19T10:24:55.913Z,1.60
2023-05-19T10:26:00.154Z,1.90
2023-05-19T10:27:05.627Z,1.85
2023-05-19T10:28:14.118Z,1.40
2023-05-19T10:29:19.501Z,1.48
2023-05-19T10:30:31.468Z,1.60
2023-05-19T10:31:34.627Z,1.48
2023-05-19T10:32:39.279Z,2.10
2023-05-19T10:33:59.915Z,1.48
2023-05-19T10:35:16.894Z,1.55
2023-05-19T10:36:46.750Z,2.00
2023-05-19T10:38:10.026Z,2.08
2023-05-19T10:39:26.396Z,1.60
2023-05-19T10:40:33.537Z,1.83
2023-05-19T10:41:36.300Z,1.67
2023-05-19T10:43:01.442Z,1.88
2023-05-19T10:44:04.412Z,1.15
2023-05-19T10:45:22.084Z,1.88
2023-05-19T10:46:28.568Z,2.30
2023-05-19T10:47:32.669Z,2.00
2023-05-19T10:48:38.927Z,1.83
2023-05-19T10:49:41.640Z,1.65
2023-05-19T10:50:47.708Z,1.60
2023-05-19T10:51:52.555Z,1.75
2023-05-19T10:52:56.514Z,1.95
2023-05-19T10:54:03.018Z,1.05
2023-05-19T10:55:10.313Z,1.40
2023-05-19T10:56:36.634Z,1.42
2023-05-19T10:57:54.373Z,1.45
2023-05-19T10:58:57.410Z,2.38
2023-05-19T11:00:11.178Z,1.55
2023-05-19T11:01:16.567Z,1.52
2023-05-19T11:02:37.887Z,2.20
2023-05-19T11:03:52.516Z,1.50
2023-05-19T11:04:58.484Z,1.52
2023-05-19T11:06:27.612Z,1.73
2023-05-19T11:07:30.670Z,1.45
2023-05-19T11:08:33.903Z,2.25
2023-05-19T11:09:42.525Z,1.58
2023-05-19T11:10:46.346Z,1.70
2023-05-19T11:11:50.195Z,1.70
2023-05-19T11:12:52.986Z,1.67
2023-05-19T11:13:56.593Z,1.80
2023-05-19T11:14:59.871Z,1.77
2023-05-19T11:16:08.869Z,2.22
2023-05-19T11:17:15.802Z,2.00
2023-05-19T11:18:19.640Z,2.15
2023-05-19T11:19:33.253Z,1.70
2023-05-19T11:20:39.216Z,1.92
2023-05-19T11:21:49.238Z,1.83
2023-05-19T11:23:07.786Z,2.38
2023-05-19T11:24:10.990Z,1.67
2023-05-19T11:25:18.568Z,2.28
2023-05-19T11:26:41.551Z,2.03
2023-05-19T11:27:47.069Z,2.10
2023-05-19T11:28:49.957Z,3.13
2023-05-19T11:29:53.969Z,2.53
2023-05-19T11:30:59.237Z,1.98
2023-05-19T11:32:02.330Z,2.33
2023-05-19T11:33:06.278Z,2.38
2023-05-19T11:34:09.600Z,2.00
2023-05-19T11:35:12.608Z,2.13
2023-05-19T11:36:16.818Z,2.28
2023-05-19T11:37:19.527Z,2.25
2023-05-19T11:38:23.764Z,2.55
2023-05-19T11:39:26.554Z,2.38
2023-05-19T11:40:30.503Z,2.33
2023-05-19T11:41:33.337Z,2.72
2023-05-19T11:42:37.436Z,2.85
2023-05-19T11:43:40.124Z,2.40
2023-05-19T11:44:46.405Z,2.60
2023-05-19T11:45:49.493Z,2.05
2023-05-19T11:46:52.416Z,2.80
2023-05-19T11:48:02.512Z,2.28
2023-05-19T11:50:11.540Z,2.15
2023-05-19T11:51:14.189Z,2.55
2023-05-19T11:52:16.996Z,2.38
2023-05-19T11:53:20.185Z,2.33
2023-05-19T11:54:31.600Z,1.92
2023-05-19T11:55:34.487Z,2.50
2023-05-19T11:56:41.316Z,2.35
2023-05-19T11:58:05.142Z,2.33
2023-05-19T11:59:09.094Z,2.25
2023-05-19T12:00:12.605Z,2.40
2023-05-19T12:01:15.346Z,2.38
2023-05-19T12:02:22.609Z,2.17
2023-05-19T12:03:28.336Z,2.78
2023-05-19T12:04:32.221Z,2.22
2023-05-19T12:05:41.825Z,2.08
2023-05-19T12:06:49.447Z,2.45
2023-05-19T12:07:52.443Z,2.50
2023-05-19T12:08:55.790Z,2.83
2023-05-19T12:10:00.201Z,2.70
2023-05-19T12:11:03.025Z,2.35
2023-05-19T12:12:06.177Z,2.38
2023-05-19T12:13:09.983Z,2.30
2023-05-19T12:14:13.568Z,2.42
2023-05-19T12:15:16.681Z,2.78
2023-05-19T12:16:23.064Z,2.00
2023-05-19T12:17:26.058Z,3.05
2023-05-19T12:18:31.648Z,2.78
2023-05-19T12:19:34.406Z,3.00
2023-05-19T12:20:37.412Z,3.20
2023-05-19T12:21:40.340Z,2.42
2023-05-19T12:22:43.706Z,2.65
2023-05-19T12:23:46.765Z,2.72
2023-05-19T12:24:49.725Z,2.70
2023-05-19T12:25:52.700Z,2.55
2023-05-19T12:27:07.634Z,2.60
2023-05-19T12:28:10.633Z,2.60
2023-05-19T12:29:16.045Z,2.75
2023-05-19T12:30:19.794Z,3.05
2023-05-19T12:31:25.630Z,2.65
2023-05-19T12:32:29.043Z,3.05
2023-05-19T12:33:33.661Z,2.70
2023-05-19T12:34:39.189Z,2.90
2023-05-19T12:35:43.130Z,2.50
2023-05-19T12:36:46.737Z,2.33
2023-05-19T12:37:49.478Z,2.35
2023-05-19T12:38:55.628Z,2.05
2023-05-19T12:39:58.471Z,2.65
2023-05-19T12:41:01.445Z,2.47
2023-05-19T12:42:11.448Z,2.90
2023-05-19T12:43:23.546Z,2.53
2023-05-19T12:44:26.884Z,2.50
2023-05-19T12:45:37.530Z,2.17
2023-05-19T12:47:48.471Z,2.25
2023-05-19T12:48:51.810Z,2.00
2023-05-19T12:50:01.516Z,1.90
2023-05-19T12:51:05.614Z,2.50
2023-05-19T12:52:12.786Z,2.13
2023-05-19T12:53:16.326Z,2.40
2023-05-19T12:54:22.527Z,2.28
2023-05-19T12:55:26.038Z,2.60
2023-05-19T12:56:29.199Z,2.78
2023-05-19T12:57:32.581Z,2.80
2023-05-19T12:58:35.374Z,2.70
2023-05-19T12:59:39.050Z,2.42
2023-05-19T13:00:47.604Z,2.92
2023-05-19T13:01:59.829Z,2.80
2023-05-19T13:03:10.343Z,2.60
2023-05-19T13:05:16.094Z,1.90
2023-05-19T13:06:18.996Z,1.92
2023-05-19T13:07:22.050Z,2.53
2023-05-19T13:08:24.766Z,2.30
2023-05-19T13:09:27.954Z,2.20
2023-05-19T13:10:31.580Z,1.92
2023-05-19T13:11:34.466Z,2.95
2023-05-19T13:12:37.155Z,2.47
2023-05-19T13:13:39.882Z,3.13
2023-05-19T13:14:43.747Z,2.95
2023-05-19T13:15:48.965Z,2.85
2023-05-19T13:16:52.351Z,2.58
2023-05-19T13:17:55.696Z,3.00
2023-05-19T13:18:58.893Z,2.40
2023-05-19T13:20:02.579Z,3.28
2023-05-19T13:21:05.919Z,2.15
2023-05-19T13:22:08.643Z,2.63
2023-05-19T13:23:12.039Z,2.70
2023-05-19T13:24:14.829Z,2.90
2023-05-19T13:25:17.597Z,3.03
2023-05-19T13:26:21.494Z,3.70
2023-05-19T13:27:24.834Z,2.80
2023-05-19T13:28:27.521Z,2.70
2023-05-19T13:29:30.382Z,2.60
2023-05-19T13:30:34.500Z,2.53
2023-05-19T13:31:37.823Z,2.60
2023-05-19T13:32:40.600Z,3.05
2023-05-19T13:33:43.296Z,2.28
2023-05-19T13:34:46.290Z,2.80
2023-05-19T13:35:49.312Z,2.53
2023-05-19T13:36:52.072Z,2.60
2023-05-19T13:37:54.909Z,2.50
2023-05-19T13:38:57.618Z,2.63
2023-05-19T13:40:00.404Z,2.90
2023-05-19T13:41:03.247Z,2.65
2023-05-19T13:42:06.499Z,3.00
2023-05-19T13:43:10.024Z,2.35
2023-05-19T13:44:12.888Z,2.88
2023-05-19T13:45:15.615Z,2.83
2023-05-19T13:46:19.245Z,2.58
2023-05-19T13:47:24.995Z,2.95
2023-05-19T13:48:27.670Z,2.50
2023-05-19T13:49:30.606Z,2.88
2023-05-19T13:50:34.351Z,2.35
2023-05-19T13:51:37.740Z,2.40
2023-05-19T13:52:40.610Z,2.63
2023-05-19T13:53:43.632Z,3.15
2023-05-19T13:54:48.523Z,2.85
2023-05-19T13:55:53.118Z,2.58
2023-05-19T13:56:56.167Z,2.65
2023-05-19T13:57:59.099Z,2.17
2023-05-19T13:59:01.935Z,2.72
2023-05-19T14:00:06.088Z,2.88
2023-05-19T14:01:14.596Z,2.35
2023-05-19T14:02:17.323Z,2.70
2023-05-19T14:03:20.338Z,2.95
2023-05-19T14:04:24.697Z,2.45
2023-05-19T14:05:31.270Z,3.03
2023-05-19T14:06:34.325Z,3.15
2023-05-19T14:07:37.098Z,3.05
2023-05-19T14:08:39.823Z,2.50
2023-05-19T14:09:42.548Z,2.58
2023-05-19T14:10:48.271Z,2.65
2023-05-19T14:11:50.977Z,2.95
2023-05-19T14:13:18.419Z,3.13
2023-05-19T14:14:17.678Z,3.25
2023-05-19T14:15:20.632Z,3.17
2023-05-19T14:16:23.446Z,2.80
2023-05-19T14:17:28.146Z,3.30
2023-05-19T14:18:32.462Z,3.30
2023-05-19T14:19:35.408Z,2.88
2023-05-19T14:20:38.196Z,3.65
2023-05-19T14:21:41.076Z,3.30
2023-05-19T14:22:43.683Z,3.00
2023-05-19T14:23:46.453Z,3.22
2023-05-19T14:24:49.208Z,2.38
2023-05-19T14:25:52.092Z,2.80
2023-05-19T14:26:54.957Z,3.00
2023-05-19T14:27:57.606Z,3.30
2023-05-19T14:29:00.404Z,3.35
2023-05-19T14:30:03.475Z,2.97
2023-05-19T14:31:07.036Z,3.28
2023-05-19T14:32:10.034Z,3.33
2023-05-19T14:33:13.131Z,3.00
2023-05-19T14:34:18.167Z,2.92